Terminal Aerodrome Forecast
Issued by NWS Wichita, KS

Home | Current Version | Previous Version | Text Only | Print | Product List | Glossary On
Versions: 1 2 3 4 5 6 7 8 9 10 11 12 13 14 15 16 17 18 19 20 21 22 23
000
FTUS43 KICT 261422 AAB
TAFICT
TAF AMD
KICT 261422Z 2614/2712 14007KT P6SM SCT020 BKN035
      TEMPO 2614/2616 BKN008
     FM262000 18009KT P6SM OVC040
     FM262300 16007KT P6SM SCT040 OVC120=

USA.gov is the U.S. government's official web portal to all federal, state and local government web resources and services.